createdAt,value
2022-08-14T00:02:01.453Z,15.23
2022-08-14T00:04:34.148Z,14.48
2022-08-14T00:07:08.409Z,14.98
2022-08-14T00:09:55.276Z,13.68
2022-08-14T00:12:48.280Z,15.40
2022-08-14T00:15:16.130Z,14.85
2022-08-14T00:17:47.287Z,16.50
2022-08-14T00:20:23.932Z,15.35
2022-08-14T00:23:08.400Z,16.50
2022-08-14T00:25:43.491Z,14.52
2022-08-14T00:28:32.469Z,15.23
2022-08-14T00:31:03.129Z,15.20
2022-08-14T00:33:52.247Z,16.58
2022-08-14T00:36:48.005Z,15.07
2022-08-14T00:41:42.553Z,15.63
2022-08-14T00:44:11.101Z,17.95
2022-08-14T00:46:39.274Z,10.82
2022-08-14T00:49:08.133Z,15.35
2022-08-14T00:51:41.094Z,15.60
2022-08-14T00:56:55.459Z,15.38
2022-08-14T00:59:25.094Z,15.75
2022-08-14T01:01:55.156Z,16.10
2022-08-14T01:04:38.258Z,16.33
2022-08-14T01:07:21.029Z,15.38
2022-08-14T01:09:51.850Z,15.05
2022-08-14T01:12:26.415Z,16.38
2022-08-14T01:14:58.289Z,14.65
2022-08-14T01:20:39.666Z,16.65
2022-08-14T01:23:16.689Z,17.75
2022-08-14T01:25:51.503Z,17.13
2022-08-14T01:28:46.441Z,15.85
2022-08-14T01:31:12.177Z,16.40
2022-08-14T01:34:00.469Z,19.13
2022-08-14T01:36:36.599Z,17.65
2022-08-14T01:39:09.540Z,18.02
2022-08-14T01:41:41.381Z,16.65
2022-08-14T01:44:33.417Z,16.20
2022-08-14T01:47:06.007Z,15.88
2022-08-14T01:49:35.652Z,17.23
2022-08-14T01:52:09.024Z,16.17
2022-08-14T01:54:42.912Z,16.00
2022-08-14T01:57:11.500Z,18.25
2022-08-14T01:59:44.021Z,17.40
2022-08-14T02:02:19.098Z,16.63
2022-08-14T02:04:55.535Z,18.52
2022-08-14T02:07:44.864Z,17.88
2022-08-14T02:10:15.884Z,16.73
2022-08-14T02:12:54.048Z,18.05
2022-08-14T02:15:25.720Z,17.77
2022-08-14T02:20:23.591Z,16.80
2022-08-14T02:22:54.783Z,16.70
2022-08-14T02:25:25.018Z,15.85
2022-08-14T02:28:24.233Z,16.00
2022-08-14T02:30:47.117Z,15.77
2022-08-14T02:33:15.155Z,15.70
2022-08-14T02:35:46.709Z,19.98
2022-08-14T02:38:29.912Z,17.23
2022-08-14T02:41:08.934Z,16.05
2022-08-14T02:43:46.222Z,16.27
2022-08-14T02:46:20.500Z,16.58
2022-08-14T02:49:03.283Z,17.10
2022-08-14T02:51:34.897Z,17.65
2022-08-14T02:54:07.370Z,16.40
2022-08-14T02:57:16.417Z,15.95
2022-08-14T02:59:28.947Z,14.57
2022-08-14T03:02:03.597Z,15.80
2022-08-14T03:04:32.954Z,15.13
2022-08-14T03:07:06.677Z,14.30
2022-08-14T03:09:42.358Z,14.95
2022-08-14T03:12:32.220Z,13.85
2022-08-14T03:15:03.632Z,13.70
2022-08-14T03:17:41.084Z,13.30
2022-08-14T03:20:22.340Z,13.35
2022-08-14T03:22:51.457Z,17.63
2022-08-14T03:25:21.760Z,17.52
2022-08-14T03:27:58.497Z,15.95
2022-08-14T03:30:39.738Z,14.50
2022-08-14T03:33:11.454Z,16.38
2022-08-14T03:36:00.357Z,15.45
2022-08-14T03:39:11.618Z,16.45
2022-08-14T03:41:20.433Z,14.70
2022-08-14T03:43:57.893Z,13.98
2022-08-14T03:46:52.663Z,14.60
2022-08-14T03:49:24.217Z,15.65
2022-08-14T03:51:57.469Z,14.32
2022-08-14T03:54:26.503Z,16.40
2022-08-14T03:56:54.872Z,17.52
2022-08-14T03:59:24.444Z,13.93
2022-08-14T04:02:01.273Z,17.30
2022-08-14T04:04:30.522Z,14.48
2022-08-14T04:06:59.972Z,17.03
2022-08-14T04:09:28.247Z,14.50
2022-08-14T04:11:58.277Z,14.90
2022-08-14T04:14:29.144Z,14.80
2022-08-14T04:16:57.564Z,18.08
2022-08-14T04:19:28.201Z,16.08
2022-08-14T04:22:04.544Z,21.38
2022-08-14T04:24:37.767Z,15.48
2022-08-14T04:27:09.760Z,15.32
2022-08-14T04:29:42.444Z,16.73
2022-08-14T04:33:00.207Z,13.68
2022-08-14T04:35:00.754Z,15.73
2022-08-14T04:37:46.694Z,13.95
2022-08-14T04:40:40.778Z,14.02
2022-08-14T04:43:38.808Z,15.43
2022-08-14T04:46:54.795Z,14.60
2022-08-14T04:49:00.153Z,13.30
2022-08-14T04:51:30.073Z,13.07
2022-08-14T04:54:05.709Z,13.95
2022-08-14T04:56:34.788Z,12.73
2022-08-14T04:59:09.892Z,14.38
2022-08-14T05:01:47.656Z,17.50
2022-08-14T05:04:19.863Z,12.15
2022-08-14T05:06:49.858Z,12.43
2022-08-14T05:09:22.853Z,12.70
2022-08-14T05:11:51.612Z,14.35
2022-08-14T05:14:45.268Z,13.18
2022-08-14T05:17:12.367Z,12.85
2022-08-14T05:19:44.298Z,11.63
2022-08-14T05:22:29.057Z,13.40
2022-08-14T05:24:57.332Z,12.20
2022-08-14T05:27:26.256Z,13.88
2022-08-14T05:29:59.237Z,12.57
2022-08-14T05:32:28.679Z,15.65
2022-08-14T05:34:59.099Z,13.85
2022-08-14T05:37:29.615Z,11.93
2022-08-14T05:40:00.476Z,12.70
2022-08-14T05:42:34.011Z,14.15
2022-08-14T05:45:03.966Z,15.13
2022-08-14T05:47:39.652Z,12.00
2022-08-14T05:50:19.281Z,14.45
2022-08-14T05:52:50.847Z,14.05
2022-08-14T05:55:22.107Z,12.60
2022-08-14T05:57:53.503Z,12.35
2022-08-14T06:00:24.693Z,12.73
2022-08-14T06:03:00.168Z,13.73
2022-08-14T06:05:29.655Z,13.25
2022-08-14T06:07:58.488Z,14.82
2022-08-14T06:10:28.012Z,13.20
2022-08-14T06:13:06.196Z,13.43
2022-08-14T06:15:34.328Z,14.05
2022-08-14T06:18:06.883Z,13.00
2022-08-14T06:20:35.426Z,13.75
2022-08-14T06:23:03.807Z,13.60
2022-08-14T06:25:32.511Z,14.00
2022-08-14T06:28:03.927Z,16.67
2022-08-14T06:30:46.185Z,15.68
2022-08-14T06:33:18.693Z,15.88
2022-08-14T06:35:47.824Z,15.77
2022-08-14T06:38:17.871Z,13.60
2022-08-14T06:40:46.619Z,14.90
2022-08-14T06:43:15.729Z,15.98
2022-08-14T06:45:50.272Z,16.27
2022-08-14T06:48:25.757Z,14.93
2022-08-14T06:50:55.596Z,16.33
2022-08-14T06:53:27.997Z,14.98
2022-08-14T06:56:02.193Z,15.23
2022-08-14T06:58:32.057Z,15.25
2022-08-14T07:01:25.030Z,15.32
2022-08-14T07:04:23.046Z,13.43
2022-08-14T07:06:55.776Z,16.27
2022-08-14T07:09:28.423Z,17.10
2022-08-14T07:12:34.991Z,19.17
2022-08-14T07:15:01.736Z,15.90
2022-08-14T07:17:32.189Z,17.42
2022-08-14T07:20:07.611Z,17.95
2022-08-14T07:22:56.397Z,17.60
2022-08-14T07:25:32.392Z,16.97
2022-08-14T07:28:01.956Z,14.70
2022-08-14T07:30:34.454Z,15.68
2022-08-14T07:33:03.712Z,14.70
2022-08-14T07:35:43.002Z,15.47
2022-08-14T07:38:23.918Z,15.30
2022-08-14T07:40:53.267Z,16.10
2022-08-14T07:43:23.081Z,15.40
2022-08-14T07:45:53.935Z,14.65
2022-08-14T07:48:25.066Z,13.73
2022-08-14T07:51:03.056Z,15.55
2022-08-14T07:53:36.657Z,15.50
2022-08-14T07:56:43.756Z,14.02
2022-08-14T07:58:58.898Z,14.98
2022-08-14T08:01:30.405Z,14.70
2022-08-14T08:04:00.349Z,14.43
2022-08-14T08:06:30.921Z,15.73
2022-08-14T08:09:03.225Z,14.27
2022-08-14T08:11:37.339Z,15.07
2022-08-14T08:14:10.766Z,15.18
2022-08-14T08:16:47.272Z,14.32
2022-08-14T08:19:18.850Z,15.23
2022-08-14T08:21:48.395Z,15.13
2022-08-14T08:24:19.767Z,14.88
2022-08-14T08:26:49.444Z,14.60
2022-08-14T08:29:25.058Z,15.82
2022-08-14T08:32:01.787Z,16.60
2022-08-14T08:34:45.291Z,14.95
2022-08-14T08:37:16.279Z,13.73
2022-08-14T08:40:02.679Z,14.00
2022-08-14T08:42:38.837Z,13.75
2022-08-14T08:45:12.044Z,12.85
2022-08-14T08:47:41.552Z,12.20
2022-08-14T08:50:23.051Z,13.07
2022-08-14T08:53:02.397Z,12.43
2022-08-14T08:55:34.180Z,13.25
2022-08-14T08:58:05.576Z,15.10
2022-08-14T09:00:49.006Z,12.65
2022-08-14T09:03:20.489Z,13.35
2022-08-14T09:05:54.386Z,12.25
2022-08-14T09:08:31.626Z,11.63
2022-08-14T09:11:19.347Z,10.05
2022-08-14T09:13:51.509Z,12.15
2022-08-14T09:16:23.698Z,12.73
2022-08-14T09:18:53.991Z,12.15
2022-08-14T09:21:31.097Z,10.15
2022-08-14T09:24:28.834Z,11.73
2022-08-14T09:26:50.176Z,11.10
2022-08-14T09:29:23.430Z,11.70
2022-08-14T09:31:57.364Z,10.70
2022-08-14T09:34:58.172Z,12.05
2022-08-14T09:37:38.443Z,10.07
2022-08-14T09:40:21.306Z,15.30
2022-08-14T09:43:01.504Z,10.02
2022-08-14T09:45:39.730Z,11.70
2022-08-14T09:48:16.551Z,11.57
2022-08-14T09:50:49.239Z,11.52
2022-08-14T09:54:18.292Z,11.30
2022-08-14T09:56:30.865Z,10.15
2022-08-14T09:59:01.233Z,11.30
2022-08-14T10:01:40.365Z,10.70
2022-08-14T10:04:34.355Z,13.48
2022-08-14T10:07:06.200Z,11.13
2022-08-14T10:09:59.455Z,11.10
2022-08-14T10:12:44.693Z,9.70
2022-08-14T10:15:20.879Z,11.50
2022-08-14T10:17:50.093Z,13.80
2022-08-14T10:20:39.410Z,10.77
2022-08-14T10:23:18.034Z,11.85
2022-08-14T10:25:53.424Z,9.98
2022-08-14T10:28:39.016Z,12.15
2022-08-14T10:31:25.685Z,8.88
2022-08-14T10:34:04.060Z,11.48
2022-08-14T10:36:44.927Z,9.52
2022-08-14T10:39:19.548Z,10.85
2022-08-14T10:41:53.990Z,10.38
2022-08-14T10:44:32.993Z,9.55
2022-08-14T10:47:41.004Z,11.15
2022-08-14T10:50:01.304Z,10.27
2022-08-14T10:52:33.928Z,10.45
2022-08-14T10:55:14.005Z,9.95
2022-08-14T10:57:51.207Z,13.43
2022-08-14T11:00:29.797Z,11.32
2022-08-14T11:03:09.747Z,11.70
2022-08-14T11:05:44.692Z,12.77
2022-08-14T11:08:15.417Z,11.48
2022-08-14T11:10:47.439Z,11.13
2022-08-14T11:13:21.224Z,12.70
2022-08-14T11:15:56.150Z,11.80
2022-08-14T11:18:32.084Z,13.15
2022-08-14T11:21:06.902Z,10.65
2022-08-14T11:23:39.918Z,10.45
2022-08-14T11:26:10.679Z,10.18
2022-08-14T11:31:20.760Z,13.20
2022-08-14T11:33:58.154Z,11.63
2022-08-14T11:36:35.119Z,10.45
2022-08-14T11:39:33.838Z,11.60
2022-08-14T11:42:07.740Z,12.77
2022-08-14T11:44:56.637Z,10.32
2022-08-14T11:47:35.585Z,9.80
2022-08-14T11:50:34.056Z,10.40
2022-08-14T11:53:07.136Z,11.10
2022-08-14T11:55:37.995Z,8.88
2022-08-14T11:58:10.373Z,9.02
2022-08-14T12:00:48.627Z,7.70
2022-08-14T12:03:27.286Z,8.32
2022-08-14T12:06:27.994Z,8.90
2022-08-14T12:08:59.833Z,9.02
2022-08-14T12:11:41.308Z,9.55
2022-08-14T12:14:29.785Z,8.05
2022-08-14T12:17:03.363Z,7.47
2022-08-14T12:19:45.485Z,6.15
2022-08-14T12:22:29.406Z,6.90
2022-08-14T12:24:58.438Z,6.20
2022-08-14T12:27:37.874Z,7.40
2022-08-14T12:30:13.583Z,6.45
2022-08-14T12:32:48.996Z,6.93
2022-08-14T12:35:20.372Z,6.28
2022-08-14T12:37:49.796Z,6.55
2022-08-14T12:40:22.909Z,6.97
2022-08-14T12:42:56.624Z,7.82
2022-08-14T12:45:32.762Z,6.90
2022-08-14T12:48:21.202Z,6.60
2022-08-14T12:50:52.383Z,7.22
2022-08-14T12:53:22.083Z,6.43
2022-08-14T12:56:21.490Z,6.38
2022-08-14T12:58:51.892Z,6.72
2022-08-14T13:01:22.344Z,6.50
2022-08-14T13:03:51.751Z,6.43
2022-08-14T13:06:24.436Z,6.25
2022-08-14T13:08:53.618Z,5.57
2022-08-14T13:11:34.467Z,6.25
2022-08-14T13:14:05.058Z,5.40
2022-08-14T13:16:38.701Z,6.18
2022-08-14T13:19:11.090Z,6.45
2022-08-14T13:21:59.090Z,6.45
2022-08-14T13:24:29.994Z,5.60
2022-08-14T13:27:04.696Z,5.68
2022-08-14T13:29:39.636Z,7.25
2022-08-14T13:32:10.023Z,6.22
2022-08-14T13:34:41.067Z,4.88
2022-08-14T13:37:11.368Z,5.90
2022-08-14T13:39:56.366Z,4.72
2022-08-14T13:42:27.697Z,5.40
2022-08-14T13:45:01.032Z,4.85
2022-08-14T13:47:30.835Z,4.75
2022-08-14T13:50:02.910Z,4.70
2022-08-14T13:52:52.517Z,4.38
2022-08-14T13:58:03.761Z,4.10
2022-08-14T14:00:35.646Z,3.75
2022-08-14T14:03:07.372Z,4.63
2022-08-14T14:05:53.190Z,4.45
2022-08-14T14:08:43.590Z,4.25
2022-08-14T14:11:16.026Z,3.92
2022-08-14T14:13:45.232Z,4.70
2022-08-14T14:16:15.376Z,6.80
2022-08-14T14:18:56.221Z,3.63
2022-08-14T14:21:26.527Z,4.15
2022-08-14T14:23:58.980Z,3.42
2022-08-14T14:26:28.645Z,3.60
2022-08-14T14:28:58.275Z,3.90
2022-08-14T14:31:31.223Z,3.50
2022-08-14T14:34:12.634Z,4.22
2022-08-14T14:36:52.769Z,3.20
2022-08-14T14:39:27.489Z,3.33
2022-08-14T14:42:06.255Z,3.27
2022-08-14T14:44:40.209Z,3.25
2022-08-14T14:47:12.410Z,3.53
2022-08-14T14:49:55.006Z,3.63
2022-08-14T14:52:27.840Z,3.30
2022-08-14T14:54:58.978Z,3.22
2022-08-14T14:57:34.883Z,3.42
2022-08-14T15:00:05.240Z,3.65
2022-08-14T15:02:36.667Z,3.47
2022-08-14T15:05:08.138Z,2.60
2022-08-14T15:07:36.473Z,3.03
2022-08-14T15:10:27.310Z,3.25
2022-08-14T15:12:57.777Z,3.05
2022-08-14T15:15:28.569Z,3.72
2022-08-14T15:18:01.265Z,3.78
2022-08-14T15:20:30.982Z,3.83
2022-08-14T15:23:12.106Z,3.83
2022-08-14T15:25:43.704Z,3.83
2022-08-14T15:28:21.864Z,3.53
2022-08-14T15:30:58.913Z,3.60
2022-08-14T15:34:01.036Z,4.35
2022-08-14T15:36:35.172Z,4.00
2022-08-14T15:39:03.772Z,4.95
2022-08-14T15:41:41.667Z,4.53
2022-08-14T15:44:24.626Z,3.80
2022-08-14T15:46:55.091Z,3.70
2022-08-14T15:49:24.269Z,4.63
2022-08-14T15:51:52.650Z,3.75
2022-08-14T15:54:22.057Z,3.10
2022-08-14T15:56:59.434Z,3.63
2022-08-14T15:59:48.507Z,3.65
2022-08-14T16:02:16.859Z,3.35
2022-08-14T16:04:50.804Z,3.58
2022-08-14T16:07:21.987Z,3.80
2022-08-14T16:10:11.917Z,4.25
2022-08-14T16:12:42.318Z,5.78
2022-08-14T16:15:22.628Z,3.20
2022-08-14T16:17:53.444Z,3.33
2022-08-14T16:20:42.201Z,3.60
2022-08-14T16:23:12.347Z,3.70
2022-08-14T16:25:44.777Z,4.53
2022-08-14T16:28:27.791Z,4.70
2022-08-14T16:30:57.104Z,4.78
2022-08-14T16:33:56.893Z,3.38
2022-08-14T16:36:30.088Z,3.50
2022-08-14T16:39:00.615Z,3.65
2022-08-14T16:41:29.643Z,4.57
2022-08-14T16:44:02.435Z,3.40
2022-08-14T16:46:34.914Z,4.75
2022-08-14T16:49:05.567Z,3.42
2022-08-14T16:51:38.537Z,4.57
2022-08-14T16:54:21.050Z,6.25
2022-08-14T16:57:13.143Z,3.60
2022-08-14T16:59:55.783Z,3.42
2022-08-14T17:02:36.057Z,3.35
2022-08-14T17:05:17.894Z,3.90
2022-08-14T17:08:32.255Z,4.95
2022-08-14T17:11:04.906Z,3.33
2022-08-14T17:13:58.041Z,3.17
2022-08-14T17:16:35.914Z,2.92
2022-08-14T17:21:46.862Z,3.53
2022-08-14T17:24:55.948Z,2.65
2022-08-14T17:27:07.350Z,2.80
2022-08-14T17:29:54.253Z,2.80
2022-08-14T17:32:44.607Z,3.25
2022-08-14T17:35:26.805Z,3.53
2022-08-14T17:38:39.478Z,2.60
2022-08-14T17:41:23.129Z,4.78
2022-08-14T17:43:54.916Z,3.13
2022-08-14T17:46:37.556Z,8.30
2022-08-14T17:49:18.112Z,5.25
2022-08-14T17:52:07.577Z,2.92
2022-08-14T17:54:52.607Z,2.75
2022-08-14T17:57:23.356Z,17.88
2022-08-14T17:59:54.152Z,2.90
2022-08-14T18:02:31.075Z,5.22
2022-08-14T18:05:03.039Z,3.08
2022-08-14T18:07:59.671Z,3.83
2022-08-14T18:10:55.151Z,6.80
2022-08-14T18:13:10.812Z,3.13
2022-08-14T18:15:41.170Z,2.78
2022-08-14T18:18:11.335Z,3.20
2022-08-14T18:21:39.753Z,2.47
2022-08-14T18:23:31.634Z,2.78
2022-08-14T18:26:00.687Z,2.22
2022-08-14T18:28:48.226Z,2.97
2022-08-14T18:31:43.904Z,3.80
2022-08-14T18:34:32.260Z,4.13
2022-08-14T18:37:17.236Z,4.95
2022-08-14T18:40:03.026Z,3.72
2022-08-14T18:42:45.775Z,3.20
2022-08-14T18:45:18.563Z,5.25
2022-08-14T18:48:14.638Z,4.35
2022-08-14T18:50:52.314Z,3.60
2022-08-14T18:53:24.856Z,4.03
2022-08-14T18:56:02.110Z,4.28
2022-08-14T18:58:48.775Z,5.57
2022-08-14T19:01:29.495Z,5.03
2022-08-14T19:03:59.673Z,4.45
2022-08-14T19:06:40.372Z,5.13
2022-08-14T19:09:34.659Z,4.55
2022-08-14T19:12:04.903Z,4.75
2022-08-14T19:14:48.260Z,4.82
2022-08-14T19:17:43.078Z,4.88
2022-08-14T19:20:52.899Z,4.88
2022-08-14T19:23:42.655Z,6.10
2022-08-14T19:26:35.608Z,4.45
2022-08-14T19:29:36.146Z,6.82
2022-08-14T19:32:22.499Z,5.50
2022-08-14T19:34:52.771Z,5.57
2022-08-14T19:37:45.925Z,5.25
2022-08-14T19:40:19.425Z,6.72
2022-08-14T19:42:49.798Z,5.03
2022-08-14T19:45:19.240Z,5.20
2022-08-14T19:50:38.333Z,6.00
2022-08-14T19:53:12.023Z,6.30
2022-08-14T19:55:49.244Z,7.05
2022-08-14T19:58:17.380Z,6.10
2022-08-14T20:00:59.092Z,6.78
2022-08-14T20:03:59.314Z,5.93
2022-08-14T20:06:18.219Z,7.82
2022-08-14T20:10:58.269Z,7.30
2022-08-14T20:14:29.409Z,6.93
2022-08-14T20:17:05.637Z,8.75
2022-08-14T20:19:37.848Z,6.57
2022-08-14T20:22:36.181Z,6.40
2022-08-14T20:27:44.038Z,5.97
2022-08-14T20:30:33.463Z,7.20
2022-08-14T20:33:10.863Z,7.32
2022-08-14T20:35:43.624Z,6.78
2022-08-14T20:38:30.474Z,6.65
2022-08-14T20:41:05.574Z,7.07
2022-08-14T20:43:54.741Z,8.77
2022-08-14T20:46:29.590Z,6.65
2022-08-14T20:49:01.205Z,6.90
2022-08-14T20:51:36.675Z,7.95
2022-08-14T20:54:08.012Z,6.95
2022-08-14T20:56:40.471Z,6.93
2022-08-14T20:59:17.805Z,6.93
2022-08-14T21:01:51.545Z,7.38
2022-08-14T21:04:26.652Z,8.00
2022-08-14T21:07:25.045Z,9.98
2022-08-14T21:10:05.500Z,9.25
2022-08-14T21:12:36.485Z,8.27
2022-08-14T21:15:11.207Z,10.48
2022-08-14T21:17:43.147Z,9.75
2022-08-14T21:20:25.499Z,9.25
2022-08-14T21:23:00.675Z,8.15
2022-08-14T21:25:31.791Z,10.18
2022-08-14T21:28:03.249Z,8.90
2022-08-14T21:30:51.648Z,8.48
2022-08-14T21:33:22.680Z,8.70
2022-08-14T21:35:55.475Z,11.38
2022-08-14T21:38:33.749Z,8.55
2022-08-14T21:41:41.625Z,8.60
2022-08-14T21:44:17.507Z,8.73
2022-08-14T21:46:51.149Z,9.00
2022-08-14T21:49:25.625Z,9.07
2022-08-14T21:52:50.560Z,9.38
2022-08-14T21:55:00.631Z,7.43
2022-08-14T21:58:45.922Z,7.88
2022-08-14T22:00:34.630Z,8.93
2022-08-14T22:03:06.587Z,7.65
2022-08-14T22:05:40.415Z,9.77
2022-08-14T22:08:12.290Z,7.97
2022-08-14T22:10:46.374Z,7.75
2022-08-14T22:13:16.829Z,8.30
2022-08-14T22:15:50.073Z,8.88
2022-08-14T22:18:21.410Z,11.60
2022-08-14T22:20:53.463Z,9.75
2022-08-14T22:23:23.111Z,9.63
2022-08-14T22:25:52.687Z,10.02
2022-08-14T22:30:54.774Z,8.90
2022-08-14T22:33:26.553Z,8.52
2022-08-14T22:36:01.655Z,9.85
2022-08-14T22:38:37.053Z,9.48
2022-08-14T22:41:25.621Z,10.30
2022-08-14T22:43:59.109Z,8.98
2022-08-14T22:46:27.762Z,10.48
2022-08-14T22:48:57.531Z,8.88
2022-08-14T22:51:28.119Z,8.55
2022-08-14T22:53:58.927Z,8.90
2022-08-14T22:56:30.445Z,9.90
2022-08-14T22:59:01.185Z,9.50
2022-08-14T23:01:56.468Z,8.85
2022-08-14T23:04:35.587Z,8.23
2022-08-14T23:07:21.744Z,8.65
2022-08-14T23:09:56.953Z,8.68
2022-08-14T23:12:31.487Z,9.70
2022-08-14T23:15:00.957Z,8.93
2022-08-14T23:17:39.625Z,8.95
2022-08-14T23:20:19.185Z,9.27
2022-08-14T23:22:52.353Z,10.02
2022-08-14T23:25:57.312Z,10.20
2022-08-14T23:28:34.473Z,9.45
2022-08-14T23:31:02.213Z,9.25
2022-08-14T23:33:34.914Z,9.05
2022-08-14T23:36:28.308Z,12.20
2022-08-14T23:38:55.239Z,10.75
2022-08-14T23:41:24.522Z,11.15
2022-08-14T23:43:55.133Z,9.93
2022-08-14T23:46:34.848Z,10.15
2022-08-14T23:49:04.854Z,10.60
2022-08-14T23:51:36.628Z,11.45
2022-08-14T23:54:49.167Z,9.93
2022-08-14T23:59:32.053Z,8.93
